< < Back
Terminal Aerodrome Forecast


Current Version              Previous Versions:   1  2  3  4  5  6  7  8  9  

Terminal Aerodrome Forecast

400
FTUS42 KJAX 241744
TAFJAX
TAF
KJAX 241744Z 2418/2518 09013G23KT P6SM SCT025 BKN035
     FM250000 10008KT P6SM SCT015 BKN035
     FM251300 12010KT P6SM SCT030=



Latest METAR

588
SAUS80 KWBC 251100
MTRJAX
METAR KJAX 251056Z 08005KT 10SM FEW015 FEW045 SCT250 22/22 A3020 RMK AO2
SLP228 T02220217


USA.gov is the U.S. government's official web portal to all federal, state and local government web resources and services.